sensor_id;sensor_type;location;lat;lon;timestamp;pressure;altitude;pressure_sealevel;temperature;humidity
74552;BME280;63025;55.472;38.432;2022-12-07T00:01:17;101644.97;;;-10.34;68.08
74552;BME280;63025;55.472;38.432;2022-12-07T00:03:44;101643.19;;;-10.32;68.53
74552;BME280;63025;55.472;38.432;2022-12-07T00:06:12;101642.38;;;-10.34;68.89
74552;BME280;63025;55.472;38.432;2022-12-07T00:08:39;101644.09;;;-10.33;68.39
74552;BME280;63025;55.472;38.432;2022-12-07T00:11:13;101637.25;;;-10.38;68.42
74552;BME280;63025;55.472;38.432;2022-12-07T00:13:40;101640.66;;;-10.35;68.37
74552;BME280;63025;55.472;38.432;2022-12-07T00:16:28;101641.69;;;-10.41;68.68
74552;BME280;63025;55.472;38.432;2022-12-07T00:18:54;101639.97;;;-10.42;68.61
74552;BME280;63025;55.472;38.432;2022-12-07T00:21:22;101638.22;;;-10.42;68.72
74552;BME280;63025;55.472;38.432;2022-12-07T00:23:50;101644.28;;;-10.41;68.54
74552;BME280;63025;55.472;38.432;2022-12-07T00:26:19;101640.81;;;-10.42;69.12
74552;BME280;63025;55.472;38.432;2022-12-07T00:28:53;101635.66;;;-10.43;68.73
74552;BME280;63025;55.472;38.432;2022-12-07T00:31:21;101634.81;;;-10.44;68.78
74552;BME280;63025;55.472;38.432;2022-12-07T00:33:48;101640.06;;;-10.47;69.10
74552;BME280;63025;55.472;38.432;2022-12-07T00:36:16;101640.94;;;-10.48;69.15
74552;BME280;63025;55.472;38.432;2022-12-07T00:38:42;101630.66;;;-10.51;68.67
74552;BME280;63025;55.472;38.432;2022-12-07T00:41:14;101632.38;;;-10.50;69.32
74552;BME280;63025;55.472;38.432;2022-12-07T00:43:41;101636.81;;;-10.55;68.79
74552;BME280;63025;55.472;38.432;2022-12-07T00:46:08;101635.13;;;-10.57;69.03
74552;BME280;63025;55.472;38.432;2022-12-07T00:48:34;101629.06;;;-10.58;69.25
74552;BME280;63025;55.472;38.432;2022-12-07T00:51:00;101635.19;;;-10.59;68.99
74552;BME280;63025;55.472;38.432;2022-12-07T00:53:26;101635.13;;;-10.57;68.70
74552;BME280;63025;55.472;38.432;2022-12-07T00:55:52;101637.88;;;-10.63;68.78
74552;BME280;63025;55.472;38.432;2022-12-07T00:58:19;101636.22;;;-10.66;68.96
74552;BME280;63025;55.472;38.432;2022-12-07T01:00:45;101631.06;;;-10.69;69.17
74552;BME280;63025;55.472;38.432;2022-12-07T01:03:13;101634.50;;;-10.67;68.99
74552;BME280;63025;55.472;38.432;2022-12-07T01:05:39;101632.84;;;-10.69;68.88
74552;BME280;63025;55.472;38.432;2022-12-07T01:08:06;101645.84;;;-10.69;69.57
74552;BME280;63025;55.472;38.432;2022-12-07T01:10:32;101645.09;;;-10.76;69.37
74552;BME280;63025;55.472;38.432;2022-12-07T01:12:58;101638.13;;;-10.74;69.69
74552;BME280;63025;55.472;38.432;2022-12-07T01:15:25;101638.28;;;-10.80;69.21
74552;BME280;63025;55.472;38.432;2022-12-07T01:17:51;101639.16;;;-10.80;69.73
74552;BME280;63025;55.472;38.432;2022-12-07T01:20:17;101640.81;;;-10.79;69.65
74552;BME280;63025;55.472;38.432;2022-12-07T01:22:43;101647.72;;;-10.78;69.74
74552;BME280;63025;55.472;38.432;2022-12-07T01:25:10;101638.28;;;-10.80;69.51
74552;BME280;63025;55.472;38.432;2022-12-07T01:27:38;101643.38;;;-10.77;69.40
74552;BME280;63025;55.472;38.432;2022-12-07T01:30:06;101639.09;;;-10.78;69.63
74552;BME280;63025;55.472;38.432;2022-12-07T01:32:33;101640.09;;;-10.84;69.80
74552;BME280;63025;55.472;38.432;2022-12-07T01:34:59;101640.13;;;-10.85;69.10
74552;BME280;63025;55.472;38.432;2022-12-07T01:37:24;101632.50;;;-10.91;69.38
74552;BME280;63025;55.472;38.432;2022-12-07T01:39:51;101638.47;;;-10.89;69.89
74552;BME280;63025;55.472;38.432;2022-12-07T01:42:18;101630.75;;;-10.91;70.06
74552;BME280;63025;55.472;38.432;2022-12-07T01:47:52;101628.16;;;-10.91;69.69
74552;BME280;63025;55.472;38.432;2022-12-07T01:50:19;101630.69;;;-10.89;69.70
74552;BME280;63025;55.472;38.432;2022-12-07T01:52:48;101628.09;;;-10.89;69.59
74552;BME280;63025;55.472;38.432;2022-12-07T01:55:16;101623.81;;;-10.90;69.70
74552;BME280;63025;55.472;38.432;2022-12-07T01:57:45;101619.41;;;-10.88;69.98
74552;BME280;63025;55.472;38.432;2022-12-07T02:00:13;101623.84;;;-10.92;69.59
74552;BME280;63025;55.472;38.432;2022-12-07T02:02:54;101623.88;;;-10.93;70.09
74552;BME280;63025;55.472;38.432;2022-12-07T02:05:21;101621.28;;;-10.93;69.98
74552;BME280;63025;55.472;38.432;2022-12-07T02:07:49;101620.50;;;-10.97;69.71
74552;BME280;63025;55.472;38.432;2022-12-07T02:12:46;101625.50;;;-10.89;69.79
74552;BME280;63025;55.472;38.432;2022-12-07T02:24:57;101606.53;;;-10.91;69.63
74552;BME280;63025;55.472;38.432;2022-12-07T02:32:38;101602.13;;;-10.89;70.12
74552;BME280;63025;55.472;38.432;2022-12-07T02:35:18;101602.22;;;-10.92;70.31
74552;BME280;63025;55.472;38.432;2022-12-07T02:37:51;101609.19;;;-10.94;70.22
74552;BME280;63025;55.472;38.432;2022-12-07T02:40:27;101604.00;;;-10.94;70.15
74552;BME280;63025;55.472;38.432;2022-12-07T02:43:06;101610.03;;;-10.94;70.14
74552;BME280;63025;55.472;38.432;2022-12-07T02:45:36;101604.84;;;-10.94;70.21
74552;BME280;63025;55.472;38.432;2022-12-07T02:48:04;101613.63;;;-10.99;70.14
74552;BME280;63025;55.472;38.432;2022-12-07T02:50:31;101605.75;;;-10.95;70.27
74552;BME280;63025;55.472;38.432;2022-12-07T02:52:57;101606.66;;;-10.97;70.49
74552;BME280;63025;55.472;38.432;2022-12-07T02:55:28;101602.31;;;-10.97;70.40
74552;BME280;63025;55.472;38.432;2022-12-07T02:58:31;101602.34;;;-10.98;70.16
74552;BME280;63025;55.472;38.432;2022-12-07T03:01:11;101602.44;;;-11.01;70.20
74552;BME280;63025;55.472;38.432;2022-12-07T03:03:48;101602.34;;;-10.98;70.18
74552;BME280;63025;55.472;38.432;2022-12-07T03:06:23;101598.84;;;-10.96;70.64
74552;BME280;63025;55.472;38.432;2022-12-07T03:14:40;101596.41;;;-11.02;70.85
74552;BME280;63025;55.472;38.432;2022-12-07T03:17:16;101594.59;;;-11.00;70.42
74552;BME280;63025;55.472;38.432;2022-12-07T03:19:45;101593.88;;;-11.06;70.49
74552;BME280;63025;55.472;38.432;2022-12-07T03:22:13;101602.44;;;-11.01;70.27
74552;BME280;63025;55.472;38.432;2022-12-07T03:24:51;101588.66;;;-11.05;70.86
74552;BME280;63025;55.472;38.432;2022-12-07T03:29:54;101592.91;;;-11.01;70.44
74552;BME280;63025;55.472;38.432;2022-12-07T03:32:54;101597.31;;;-11.04;70.98
74552;BME280;63025;55.472;38.432;2022-12-07T03:35:43;101599.88;;;-11.03;70.66
74552;BME280;63025;55.472;38.432;2022-12-07T03:38:22;101592.13;;;-11.04;70.48
74552;BME280;63025;55.472;38.432;2022-12-07T03:41:40;101589.56;;;-11.06;70.79
74552;BME280;63025;55.472;38.432;2022-12-07T03:43:47;101589.53;;;-11.04;71.06
74552;BME280;63025;55.472;38.432;2022-12-07T03:51:49;101591.44;;;-11.13;71.33
74552;BME280;63025;55.472;38.432;2022-12-07T03:54:21;101584.53;;;-11.14;70.73
74552;BME280;63025;55.472;38.432;2022-12-07T03:56:49;101580.09;;;-11.08;71.15
74552;BME280;63025;55.472;38.432;2022-12-07T03:59:16;101580.94;;;-11.08;70.87
74552;BME280;63025;55.472;38.432;2022-12-07T04:01:44;101581.03;;;-11.11;71.41
74552;BME280;63025;55.472;38.432;2022-12-07T04:04:10;101587.03;;;-11.09;70.86
74552;BME280;63025;55.472;38.432;2022-12-07T04:06:36;101594.00;;;-11.11;71.04
74552;BME280;63025;55.472;38.432;2022-12-07T04:09:03;101595.69;;;-11.10;71.06
74552;BME280;63025;55.472;38.432;2022-12-07T04:11:28;101586.22;;;-11.11;71.53
74552;BME280;63025;55.472;38.432;2022-12-07T04:13:54;101600.00;;;-11.09;70.90
74552;BME280;63025;55.472;38.432;2022-12-07T04:16:39;101596.63;;;-11.13;70.92
74552;BME280;63025;55.472;38.432;2022-12-07T04:19:04;101595.66;;;-11.08;71.26
74552;BME280;63025;55.472;38.432;2022-12-07T04:21:30;101604.31;;;-11.09;71.16
74552;BME280;63025;55.472;38.432;2022-12-07T04:23:56;101599.22;;;-11.13;70.90
74552;BME280;63025;55.472;38.432;2022-12-07T04:26:22;101595.81;;;-11.15;71.70
74552;BME280;63025;55.472;38.432;2022-12-07T04:28:48;101587.19;;;-11.17;71.90
74552;BME280;63025;55.472;38.432;2022-12-07T04:31:13;101594.94;;;-11.14;71.64
74552;BME280;63025;55.472;38.432;2022-12-07T04:33:39;101584.56;;;-11.15;71.96
74552;BME280;63025;55.472;38.432;2022-12-07T04:36:05;101589.72;;;-11.14;71.23
74552;BME280;63025;55.472;38.432;2022-12-07T04:38:31;101588.09;;;-11.18;71.38
74552;BME280;63025;55.472;38.432;2022-12-07T04:40:57;101594.94;;;-11.14;71.95
74552;BME280;63025;55.472;38.432;2022-12-07T04:43:23;101589.72;;;-11.14;71.32
74552;BME280;63025;55.472;38.432;2022-12-07T04:45:49;101592.34;;;-11.14;71.49
74552;BME280;63025;55.472;38.432;2022-12-07T04:48:16;101586.22;;;-11.11;72.11
74552;BME280;63025;55.472;38.432;2022-12-07T04:50:41;101588.13;;;-11.19;72.23
74552;BME280;63025;55.472;38.432;2022-12-07T04:53:07;101587.31;;;-11.21;72.35
74552;BME280;63025;55.472;38.432;2022-12-07T04:55:33;101588.13;;;-11.19;71.79
74552;BME280;63025;55.472;38.432;2022-12-07T04:57:59;101591.59;;;-11.20;71.82
74552;BME280;63025;55.472;38.432;2022-12-07T05:00:24;101586.41;;;-11.20;71.90
74552;BME280;63025;55.472;38.432;2022-12-07T05:02:50;101598.50;;;-11.19;72.54
74552;BME280;63025;55.472;38.432;2022-12-07T05:05:16;101589.84;;;-11.20;72.50
74552;BME280;63025;55.472;38.432;2022-12-07T05:07:42;101584.66;;;-11.20;72.41
74552;BME280;63025;55.472;38.432;2022-12-07T05:10:08;101590.75;;;-11.21;72.53
74552;BME280;63025;55.472;38.432;2022-12-07T05:12:34;101593.34;;;-11.21;71.97
74552;BME280;63025;55.472;38.432;2022-12-07T05:14:59;101601.22;;;-11.24;72.30
74552;BME280;63025;55.472;38.432;2022-12-07T05:17:25;101602.97;;;-11.26;72.57
74552;BME280;63025;55.472;38.432;2022-12-07T05:19:51;101605.50;;;-11.23;72.36
74552;BME280;63025;55.472;38.432;2022-12-07T05:22:17;101603.03;;;-11.29;72.57
74552;BME280;63025;55.472;38.432;2022-12-07T05:24:42;101601.28;;;-11.28;72.51
74552;BME280;63025;55.472;38.432;2022-12-07T05:27:08;101598.81;;;-11.33;72.71
74552;BME280;63025;55.472;38.432;2022-12-07T05:29:34;101594.47;;;-11.32;72.63
74552;BME280;63025;55.472;38.432;2022-12-07T05:32:00;101596.13;;;-11.30;72.57
74552;BME280;63025;55.472;38.432;2022-12-07T05:34:26;101596.94;;;-11.26;72.87
74552;BME280;63025;55.472;38.432;2022-12-07T05:36:52;101590.00;;;-11.26;73.16
74552;BME280;63025;55.472;38.432;2022-12-07T05:39:17;101596.91;;;-11.25;73.00
74552;BME280;63025;55.472;38.432;2022-12-07T05:41:43;101596.22;;;-11.33;73.23
74552;BME280;63025;55.472;38.432;2022-12-07T05:44:28;101596.22;;;-11.33;73.24
74552;BME280;63025;55.472;38.432;2022-12-07T05:46:54;101586.75;;;-11.35;73.14
74552;BME280;63025;55.472;38.432;2022-12-07T05:49:20;101601.41;;;-11.33;73.29
74552;BME280;63025;55.472;38.432;2022-12-07T05:51:45;101582.22;;;-11.26;73.23
74552;BME280;63025;55.472;38.432;2022-12-07T05:54:11;101596.84;;;-11.22;73.88
74552;BME280;63025;55.472;38.432;2022-12-07T05:56:37;101591.75;;;-11.26;73.27
74552;BME280;63025;55.472;38.432;2022-12-07T05:59:03;101590.00;;;-11.26;73.84
74552;BME280;63025;55.472;38.432;2022-12-07T06:01:52;101589.91;;;-11.21;73.79
74552;BME280;63025;55.472;38.432;2022-12-07T06:04:18;101592.53;;;-11.23;73.72
74552;BME280;63025;55.472;38.432;2022-12-07T06:06:44;101598.63;;;-11.24;73.96
74552;BME280;63025;55.472;38.432;2022-12-07T06:09:10;101600.19;;;-11.18;73.79
74552;BME280;63025;55.472;38.432;2022-12-07T06:11:36;101600.09;;;-11.12;73.55
74552;BME280;63025;55.472;38.432;2022-12-07T06:14:20;101601.94;;;-11.19;73.33
74552;BME280;63025;55.472;38.432;2022-12-07T06:16:46;101600.13;;;-11.14;73.42
74552;BME280;63025;55.472;38.432;2022-12-07T06:19:12;101601.84;;;-11.14;73.40
74552;BME280;63025;55.472;38.432;2022-12-07T06:21:38;101602.63;;;-11.10;73.87
74552;BME280;63025;55.472;38.432;2022-12-07T06:24:04;101605.34;;;-11.15;73.54
74552;BME280;63025;55.472;38.432;2022-12-07T06:26:30;101606.19;;;-11.15;73.76
74552;BME280;63025;55.472;38.432;2022-12-07T06:28:56;101604.28;;;-11.06;73.91
74552;BME280;63025;55.472;38.432;2022-12-07T06:31:22;101603.56;;;-11.13;73.94
74552;BME280;63025;55.472;38.432;2022-12-07T06:33:48;101605.91;;;-11.02;74.02
74552;BME280;63025;55.472;38.432;2022-12-07T06:36:14;101603.19;;;-10.98;73.37
74552;BME280;63025;55.472;38.432;2022-12-07T06:38:40;101603.13;;;-10.93;73.86
74552;BME280;63025;55.472;38.432;2022-12-07T06:41:06;101606.31;;;-10.82;73.47
74552;BME280;63025;55.472;38.432;2022-12-07T06:43:32;101596.22;;;-10.59;73.42
74552;BME280;63025;55.472;38.432;2022-12-07T06:45:58;101591.78;;;-10.55;73.33
74552;BME280;63025;55.472;38.432;2022-12-07T06:48:24;101589.97;;;-10.18;72.36
74552;BME280;63025;55.472;38.432;2022-12-07T06:50:50;101593.25;;;-9.80;71.95
74552;BME280;63025;55.472;38.432;2022-12-07T06:53:16;101588.09;;;-9.23;71.20
74552;BME280;63025;55.472;38.432;2022-12-07T06:55:41;101585.56;;;-8.70;69.37
74552;BME280;63025;55.472;38.432;2022-12-07T06:58:07;101586.31;;;-8.40;68.32
74552;BME280;63025;55.472;38.432;2022-12-07T07:00:33;101581.16;;;-7.92;67.32
74552;BME280;63025;55.472;38.432;2022-12-07T07:03:01;101585.72;;;-7.74;65.80
74552;BME280;63025;55.472;38.432;2022-12-07T07:05:27;101576.84;;;-7.23;64.76
74552;BME280;63025;55.472;38.432;2022-12-07T07:07:52;101582.03;;;-7.00;63.83
74552;BME280;63025;55.472;38.432;2022-12-07T07:10:18;101585.38;;;-6.96;62.90
74552;BME280;63025;55.472;38.432;2022-12-07T07:12:44;101580.94;;;-6.31;61.49
74552;BME280;63025;55.472;38.432;2022-12-07T07:15:10;101578.47;;;-6.13;60.46
74552;BME280;63025;55.472;38.432;2022-12-07T07:17:37;101588.53;;;-6.04;59.74
74552;BME280;63025;55.472;38.432;2022-12-07T07:20:04;101587.94;;;-5.72;60.21
74552;BME280;63025;55.472;38.432;2022-12-07T07:22:30;101586.50;;;-5.02;58.59
74552;BME280;63025;55.472;38.432;2022-12-07T07:24:55;101574.22;;;-5.39;58.23
74552;BME280;63025;55.472;38.432;2022-12-07T07:27:21;101578.59;;;-4.84;56.80
74552;BME280;63025;55.472;38.432;2022-12-07T07:29:47;101571.78;;;-4.52;56.36
74552;BME280;63025;55.472;38.432;2022-12-07T07:32:13;101565.78;;;-4.90;56.36
74552;BME280;63025;55.472;38.432;2022-12-07T07:34:39;101575.47;;;-4.56;55.81
74552;BME280;63025;55.472;38.432;2022-12-07T07:37:05;101573.63;;;-4.54;55.27
74552;BME280;63025;55.472;38.432;2022-12-07T07:39:31;101563.00;;;-4.33;53.91
74552;BME280;63025;55.472;38.432;2022-12-07T07:42:00;101558.66;;;-3.18;53.29
74552;BME280;63025;55.472;38.432;2022-12-07T07:44:26;101566.78;;;-2.60;51.30
74552;BME280;63025;55.472;38.432;2022-12-07T07:46:52;101558.31;;;-2.97;51.16
74552;BME280;63025;55.472;38.432;2022-12-07T07:49:18;101564.50;;;-3.13;51.33
74552;BME280;63025;55.472;38.432;2022-12-07T07:51:44;101565.25;;;-2.80;50.41
74552;BME280;63025;55.472;38.432;2022-12-07T07:54:10;101559.03;;;-2.33;49.63
74552;BME280;63025;55.472;38.432;2022-12-07T07:56:35;101557.50;;;-2.51;48.80
74552;BME280;63025;55.472;38.432;2022-12-07T07:59:01;101559.41;;;-2.39;48.46
74552;BME280;63025;55.472;38.432;2022-12-07T08:01:27;101557.31;;;-2.18;48.10
74552;BME280;63025;55.472;38.432;2022-12-07T08:03:53;101558.88;;;-2.30;48.47
74552;BME280;63025;55.472;38.432;2022-12-07T08:06:19;101557.94;;;-2.75;48.32
74552;BME280;63025;55.472;38.432;2022-12-07T08:08:44;101549.56;;;-3.28;48.97
74552;BME280;63025;55.472;38.432;2022-12-07T08:11:10;101551.97;;;-4.23;49.58
74552;BME280;63025;55.472;38.432;2022-12-07T08:13:37;101554.72;;;-3.58;49.87
74552;BME280;63025;55.472;38.432;2022-12-07T08:16:05;101551.00;;;-4.04;49.92
74552;BME280;63025;55.472;38.432;2022-12-07T08:18:35;101552.25;;;-4.63;50.26
74552;BME280;63025;55.472;38.432;2022-12-07T08:21:02;101551.28;;;-5.15;51.46
74552;BME280;63025;55.472;38.432;2022-12-07T08:23:29;101556.84;;;-5.40;52.10
74552;BME280;63025;55.472;38.432;2022-12-07T08:26:00;101559.81;;;-6.06;53.78
74552;BME280;63025;55.472;38.432;2022-12-07T08:28:26;101559.22;;;-5.92;53.61
74552;BME280;63025;55.472;38.432;2022-12-07T08:30:52;101562.09;;;-5.79;54.87
74552;BME280;63025;55.472;38.432;2022-12-07T08:33:17;101554.16;;;-5.97;55.01
74552;BME280;63025;55.472;38.432;2022-12-07T08:35:43;101561.13;;;-5.96;55.05
74552;BME280;63025;55.472;38.432;2022-12-07T08:38:09;101544.56;;;-5.96;54.67
74552;BME280;63025;55.472;38.432;2022-12-07T08:40:35;101560.38;;;-5.99;54.39
74552;BME280;63025;55.472;38.432;2022-12-07T08:43:00;101550.84;;;-6.00;55.18
74552;BME280;63025;55.472;38.432;2022-12-07T08:45:26;101557.06;;;-6.03;55.13
74552;BME280;63025;55.472;38.432;2022-12-07T08:48:06;101548.16;;;-6.19;55.39
74552;BME280;63025;55.472;38.432;2022-12-07T08:50:33;101553.19;;;-6.55;55.45
74552;BME280;63025;55.472;38.432;2022-12-07T08:53:00;101551.28;;;-6.93;56.02
74552;BME280;63025;55.472;38.432;2022-12-07T08:55:27;101552.69;;;-7.07;56.93
74552;BME280;63025;55.472;38.432;2022-12-07T08:57:54;101550.00;;;-7.05;57.58
74552;BME280;63025;55.472;38.432;2022-12-07T09:00:20;101558.47;;;-7.44;57.83
74552;BME280;63025;55.472;38.432;2022-12-07T09:02:46;101542.91;;;-7.47;58.47
74552;BME280;63025;55.472;38.432;2022-12-07T09:05:13;101539.81;;;-7.11;58.64
74552;BME280;63025;55.472;38.432;2022-12-07T09:07:41;101545.63;;;-6.20;57.48
74552;BME280;63025;55.472;38.432;2022-12-07T09:10:07;101537.13;;;-5.49;56.72
74552;BME280;63025;55.472;38.432;2022-12-07T09:12:33;101532.13;;;-5.72;55.71
74552;BME280;63025;55.472;38.432;2022-12-07T09:14:59;101521.84;;;-5.96;55.84
74552;BME280;63025;55.472;38.432;2022-12-07T09:17:26;101524.47;;;-5.96;55.31
74552;BME280;63025;55.472;38.432;2022-12-07T09:19:52;101519.22;;;-5.39;55.18
74552;BME280;63025;55.472;38.432;2022-12-07T09:22:18;101505.84;;;-4.97;54.36
74552;BME280;63025;55.472;38.432;2022-12-07T09:24:43;101508.84;;;-4.52;53.14
74552;BME280;63025;55.472;38.432;2022-12-07T09:27:11;101507.06;;;-4.51;52.85
74552;BME280;63025;55.472;38.432;2022-12-07T09:29:37;101509.50;;;-4.83;53.27
74552;BME280;63025;55.472;38.432;2022-12-07T09:32:03;101508.41;;;-4.96;52.92
74552;BME280;63025;55.472;38.432;2022-12-07T09:34:32;101506.94;;;-5.56;53.54
74552;BME280;63025;55.472;38.432;2022-12-07T09:37:00;101496.00;;;-5.28;53.02
74552;BME280;63025;55.472;38.432;2022-12-07T09:39:26;101500.91;;;-5.03;53.56
74552;BME280;63025;55.472;38.432;2022-12-07T09:41:52;101501.59;;;-5.36;53.33
74552;BME280;63025;55.472;38.432;2022-12-07T09:44:22;101495.66;;;-5.21;53.50
74552;BME280;63025;55.472;38.432;2022-12-07T09:46:49;101490.66;;;-4.22;52.11
74552;BME280;63025;55.472;38.432;2022-12-07T09:49:22;101483.03;;;-3.45;51.11
74552;BME280;63025;55.472;38.432;2022-12-07T09:54:45;101476.56;;;-3.55;48.79
74552;BME280;63025;55.472;38.432;2022-12-07T09:57:12;101483.53;;;-4.02;50.25
74552;BME280;63025;55.472;38.432;2022-12-07T09:59:38;101477.06;;;-3.48;49.74
74552;BME280;63025;55.472;38.432;2022-12-07T10:04:50;101475.72;;;-4.54;49.94
74552;BME280;63025;55.472;38.432;2022-12-07T10:07:16;101481.22;;;-3.76;50.42
74552;BME280;63025;55.472;38.432;2022-12-07T10:09:41;101475.13;;;-3.60;49.80
74552;BME280;63025;55.472;38.432;2022-12-07T10:12:10;101471.13;;;-3.52;48.78
74552;BME280;63025;55.472;38.432;2022-12-07T10:14:56;101483.19;;;-3.63;48.73
74552;BME280;63025;55.472;38.432;2022-12-07T10:17:35;101477.25;;;-3.51;48.56
74552;BME280;63025;55.472;38.432;2022-12-07T10:20:14;101479.94;;;-3.21;48.92
74552;BME280;63025;55.472;38.432;2022-12-07T10:23:14;101470.13;;;-3.49;48.40
74552;BME280;63025;55.472;38.432;2022-12-07T10:25:40;101475.19;;;-3.15;48.45
74552;BME280;63025;55.472;38.432;2022-12-07T10:31:30;101461.25;;;-2.41;46.97
74552;BME280;63025;55.472;38.432;2022-12-07T10:33:36;101462.69;;;-2.22;46.40
74552;BME280;63025;55.472;38.432;2022-12-07T10:38:52;101454.28;;;-2.86;46.56
74552;BME280;63025;55.472;38.432;2022-12-07T10:41:19;101446.59;;;-2.75;47.67
74552;BME280;63025;55.472;38.432;2022-12-07T10:43:53;101454.59;;;-1.90;46.87
74552;BME280;63025;55.472;38.432;2022-12-07T10:57:20;101449.06;;;-2.72;47.26
74552;BME280;63025;55.472;38.432;2022-12-07T11:00:18;101437.41;;;-2.68;47.11
74552;BME280;63025;55.472;38.432;2022-12-07T11:02:56;101445.69;;;-2.74;46.83
74552;BME280;63025;55.472;38.432;2022-12-07T11:22:09;101403.84;;;-4.34;49.40
74552;BME280;63025;55.472;38.432;2022-12-07T11:27:43;101410.22;;;-3.43;49.74
74552;BME280;63025;55.472;38.432;2022-12-07T11:30:18;101410.47;;;-3.02;48.61
74552;BME280;63025;55.472;38.432;2022-12-07T11:35:48;101409.50;;;-4.09;50.47
74552;BME280;63025;55.472;38.432;2022-12-07T11:38:21;101413.22;;;-4.13;50.30
74552;BME280;63025;55.472;38.432;2022-12-07T11:40:51;101403.84;;;-4.17;50.36
74552;BME280;63025;55.472;38.432;2022-12-07T11:43:27;101411.91;;;-4.37;51.16
74552;BME280;63025;55.472;38.432;2022-12-07T11:51:06;101398.91;;;-5.08;52.37
74552;BME280;63025;55.472;38.432;2022-12-07T11:53:39;101387.84;;;-5.85;53.51
74552;BME280;63025;55.472;38.432;2022-12-07T11:56:12;101398.19;;;-5.82;53.93
74552;BME280;63025;55.472;38.432;2022-12-07T12:01:14;101395.00;;;-6.45;55.90
74552;BME280;63025;55.472;38.432;2022-12-07T12:06:41;101386.63;;;-6.53;56.59
74552;BME280;63025;55.472;38.432;2022-12-07T12:09:17;101387.03;;;-6.62;56.65
74552;BME280;63025;55.472;38.432;2022-12-07T12:20:23;101373.81;;;-6.98;58.32
74552;BME280;63025;55.472;38.432;2022-12-07T12:22:59;101380.66;;;-7.16;58.50
74552;BME280;63025;55.472;38.432;2022-12-07T12:25:37;101365.69;;;-7.32;58.52
74552;BME280;63025;55.472;38.432;2022-12-07T12:28:04;101370.03;;;-7.53;59.41
74552;BME280;63025;55.472;38.432;2022-12-07T12:30:39;101376.47;;;-7.62;59.92
74552;BME280;63025;55.472;38.432;2022-12-07T12:33:27;101373.38;;;-7.71;60.22
74552;BME280;63025;55.472;38.432;2022-12-07T12:39:08;101371.72;;;-7.96;60.83
74552;BME280;63025;55.472;38.432;2022-12-07T12:47:04;101381.66;;;-8.29;62.08
74552;BME280;63025;55.472;38.432;2022-12-07T12:49:34;101377.78;;;-8.40;62.43
74552;BME280;63025;55.472;38.432;2022-12-07T12:54:39;101378.41;;;-8.57;62.93
74552;BME280;63025;55.472;38.432;2022-12-07T12:57:31;101373.66;;;-8.69;63.40
74552;BME280;63025;55.472;38.432;2022-12-07T12:59:58;101377.06;;;-8.67;63.62
74552;BME280;63025;55.472;38.432;2022-12-07T13:02:32;101379.09;;;-8.75;63.71
74552;BME280;63025;55.472;38.432;2022-12-07T13:20:56;101374.63;;;-8.97;64.96
74552;BME280;63025;55.472;38.432;2022-12-07T13:26:17;101371.28;;;-9.00;64.96
74552;BME280;63025;55.472;38.432;2022-12-07T13:28:48;101362.03;;;-9.09;65.48
74552;BME280;63025;55.472;38.432;2022-12-07T13:33:59;101362.94;;;-9.10;65.55
74552;BME280;63025;55.472;38.432;2022-12-07T13:36:29;101359.47;;;-9.10;65.74
74552;BME280;63025;55.472;38.432;2022-12-07T13:38:59;101358.03;;;-9.19;65.87
74552;BME280;63025;55.472;38.432;2022-12-07T13:41:27;101362.34;;;-9.18;66.03
74552;BME280;63025;55.472;38.432;2022-12-07T13:46:35;101356.38;;;-9.21;66.53
74552;BME280;63025;55.472;38.432;2022-12-07T13:49:20;101362.56;;;-9.24;66.52
74552;BME280;63025;55.472;38.432;2022-12-07T13:51:47;101355.47;;;-9.20;66.63
74552;BME280;63025;55.472;38.432;2022-12-07T13:54:14;101354.59;;;-9.19;66.91
74552;BME280;63025;55.472;38.432;2022-12-07T13:56:40;101351.22;;;-9.23;66.91
74552;BME280;63025;55.472;38.432;2022-12-07T13:59:16;101354.00;;;-9.28;66.69
74552;BME280;63025;55.472;38.432;2022-12-07T14:01:45;101347.94;;;-9.28;67.04
74552;BME280;63025;55.472;38.432;2022-12-07T14:06:58;101348.13;;;-9.34;67.05
74552;BME280;63025;55.472;38.432;2022-12-07T14:09:26;101344.94;;;-9.42;67.33
74552;BME280;63025;55.472;38.432;2022-12-07T14:11:55;101339.88;;;-9.45;68.04
74552;BME280;63025;55.472;38.432;2022-12-07T14:14:27;101340.75;;;-9.46;67.76
74552;BME280;63025;55.472;38.432;2022-12-07T14:17:15;101341.84;;;-9.53;68.19
74552;BME280;63025;55.472;38.432;2022-12-07T14:19:50;101335.69;;;-9.51;68.54
74552;BME280;63025;55.472;38.432;2022-12-07T14:22:27;101347.94;;;-9.54;68.56
74552;BME280;63025;55.472;38.432;2022-12-07T14:25:16;101341.25;;;-9.61;68.54
74552;BME280;63025;55.472;38.432;2022-12-07T14:30:16;101343.00;;;-9.62;68.63
74552;BME280;63025;55.472;38.432;2022-12-07T14:32:43;101346.72;;;-9.69;68.97
74552;BME280;63025;55.472;38.432;2022-12-07T14:35:16;101342.41;;;-9.70;69.06
74552;BME280;63025;55.472;38.432;2022-12-07T14:37:44;101329.41;;;-9.70;69.52
74552;BME280;63025;55.472;38.432;2022-12-07T14:40:16;101330.22;;;-9.68;69.13
74552;BME280;63025;55.472;38.432;2022-12-07T14:42:44;101329.44;;;-9.72;69.15
74552;BME280;63025;55.472;38.432;2022-12-07T14:45:17;101331.25;;;-9.74;69.38
74552;BME280;63025;55.472;38.432;2022-12-07T14:47:45;101327.84;;;-9.76;69.47
74552;BME280;63025;55.472;38.432;2022-12-07T14:50:13;101339.16;;;-9.77;69.56
74552;BME280;63025;55.472;38.432;2022-12-07T14:52:39;101332.34;;;-9.81;69.58
74552;BME280;63025;55.472;38.432;2022-12-07T14:55:14;101333.25;;;-9.82;70.49
74552;BME280;63025;55.472;38.432;2022-12-07T14:57:42;101335.63;;;-9.76;69.50
74552;BME280;63025;55.472;38.432;2022-12-07T15:00:09;101330.56;;;-9.79;70.14
74552;BME280;63025;55.472;38.432;2022-12-07T15:02:38;101329.69;;;-9.79;70.02
74552;BME280;63025;55.472;38.432;2022-12-07T15:05:04;101332.44;;;-9.84;69.91